createdAt,value
2018-05-19T00:02:25.948Z,9.97
2018-05-19T00:04:52.232Z,10.40
2018-05-19T00:07:18.429Z,10.60
2018-05-19T00:09:44.676Z,12.00
2018-05-19T00:12:10.917Z,11.37
2018-05-19T00:14:37.247Z,10.60
2018-05-19T00:17:03.421Z,9.40
2018-05-19T00:19:29.640Z,9.70
2018-05-19T00:21:55.872Z,10.80
2018-05-19T00:24:22.215Z,10.93
2018-05-19T00:26:48.404Z,10.47
2018-05-19T00:29:15.346Z,10.57
2018-05-19T00:31:42.367Z,11.70
2018-05-19T00:34:09.377Z,11.77
2018-05-19T00:36:35.631Z,11.33
2018-05-19T00:39:01.840Z,9.47
2018-05-19T00:41:28.085Z,10.20
2018-05-19T00:43:54.324Z,10.40
2018-05-19T00:46:20.599Z,11.50
2018-05-19T00:48:47.537Z,10.63
2018-05-19T00:51:14.546Z,11.13
2018-05-19T00:53:40.772Z,9.77
2018-05-19T00:56:06.975Z,11.00
2018-05-19T00:58:33.264Z,10.63
2018-05-19T01:01:00.172Z,11.23
2018-05-19T01:03:26.415Z,12.20
2018-05-19T01:05:52.665Z,11.37
2018-05-19T01:08:19.680Z,12.57
2018-05-19T01:10:45.859Z,10.30
2018-05-19T01:13:12.107Z,10.97
2018-05-19T01:15:38.360Z,10.70
2018-05-19T01:18:04.622Z,10.57
2018-05-19T01:20:32.600Z,10.80
2018-05-19T01:22:59.532Z,10.20
2018-05-19T01:25:26.512Z,11.07
2018-05-19T01:27:52.724Z,11.53
2018-05-19T01:30:19.695Z,10.90
2018-05-19T01:32:45.964Z,11.30
2018-05-19T01:35:12.185Z,12.50
2018-05-19T01:37:39.761Z,12.77
2018-05-19T01:40:06.020Z,11.90
2018-05-19T01:42:32.952Z,11.97
2018-05-19T01:44:59.930Z,11.93
2018-05-19T01:47:26.426Z,11.37
2018-05-19T01:49:53.341Z,13.10
2018-05-19T01:52:20.626Z,12.77
2018-05-19T01:54:47.651Z,12.20
2018-05-19T01:57:14.609Z,11.67
2018-05-19T01:59:41.616Z,11.37
2018-05-19T02:02:07.804Z,12.53
2018-05-19T02:04:34.842Z,12.90
2018-05-19T02:07:01.013Z,11.47
2018-05-19T02:09:27.325Z,13.50
2018-05-19T02:11:53.506Z,11.00
2018-05-19T02:14:19.750Z,12.77
2018-05-19T02:16:46.718Z,12.40
2018-05-19T02:19:12.983Z,12.20
2018-05-19T02:21:39.253Z,11.67
2018-05-19T02:24:05.431Z,11.60
2018-05-19T02:26:31.706Z,11.43
2018-05-19T02:28:57.914Z,11.40
2018-05-19T02:31:24.168Z,12.27
2018-05-19T02:33:51.187Z,12.77
2018-05-19T02:36:17.384Z,12.13
2018-05-19T02:38:43.653Z,11.87
2018-05-19T02:41:09.848Z,14.23
2018-05-19T02:43:36.164Z,12.23
2018-05-19T02:46:02.341Z,12.27
2018-05-19T02:48:28.582Z,12.63
2018-05-19T02:50:55.535Z,11.90
2018-05-19T02:53:22.492Z,10.53
2018-05-19T02:55:48.748Z,11.93
2018-05-19T02:58:15.048Z,12.57
2018-05-19T03:00:41.233Z,13.83
2018-05-19T03:03:07.470Z,13.70
2018-05-19T03:05:33.621Z,13.10
2018-05-19T03:08:00.620Z,13.40
2018-05-19T03:10:26.815Z,13.37
2018-05-19T03:12:53.056Z,14.90
2018-05-19T03:15:19.295Z,14.13
2018-05-19T03:17:45.594Z,13.87
2018-05-19T03:20:11.784Z,15.00
2018-05-19T03:22:37.936Z,14.27
2018-05-19T03:25:04.876Z,14.33
2018-05-19T03:27:31.828Z,14.67
2018-05-19T03:29:58.825Z,15.30
2018-05-19T03:32:25.035Z,15.43
2018-05-19T03:34:51.308Z,15.80
2018-05-19T03:37:17.536Z,16.70
2018-05-19T03:39:43.784Z,16.37
2018-05-19T03:42:10.800Z,18.33
2018-05-19T03:44:36.979Z,17.03
2018-05-19T03:47:03.220Z,16.50
2018-05-19T03:49:29.452Z,16.27
2018-05-19T03:51:55.825Z,16.80
2018-05-19T03:54:22.097Z,17.10
2018-05-19T03:56:48.303Z,17.60
2018-05-19T03:59:27.540Z,18.90
2018-05-19T04:02:17.499Z,18.40
2018-05-19T04:04:43.692Z,19.13
2018-05-19T04:07:09.916Z,18.00
2018-05-19T04:09:36.180Z,17.70
2018-05-19T04:12:03.331Z,19.10
2018-05-19T04:14:29.583Z,18.77
2018-05-19T04:16:56.545Z,17.67
2018-05-19T04:19:22.775Z,18.30
2018-05-19T04:21:49.003Z,16.90
2018-05-19T04:24:15.168Z,16.97
2018-05-19T04:26:41.459Z,17.60
2018-05-19T04:29:07.643Z,18.50
2018-05-19T04:31:34.613Z,17.10
2018-05-19T04:34:01.568Z,17.90
2018-05-19T04:36:28.828Z,16.93
2018-05-19T04:38:56.074Z,16.77
2018-05-19T04:41:23.139Z,17.03
2018-05-19T04:43:50.335Z,17.73
2018-05-19T04:46:16.552Z,16.83
2018-05-19T04:48:43.527Z,17.40
2018-05-19T04:51:09.807Z,18.47
2018-05-19T04:53:36.008Z,17.07
2018-05-19T04:56:02.233Z,17.73
2018-05-19T04:58:29.236Z,17.40
2018-05-19T05:00:55.448Z,16.73
2018-05-19T05:03:21.696Z,17.97
2018-05-19T05:05:47.951Z,16.80
2018-05-19T05:08:14.899Z,17.13
2018-05-19T05:10:41.860Z,17.57
2018-05-19T05:13:08.115Z,17.27
2018-05-19T05:15:34.412Z,15.50
2018-05-19T05:18:01.417Z,16.00
2018-05-19T05:20:27.707Z,13.73
2018-05-19T05:22:53.892Z,15.20
2018-05-19T05:25:20.202Z,14.10
2018-05-19T05:27:46.360Z,13.80
2018-05-19T05:30:13.381Z,13.80
2018-05-19T05:32:39.564Z,13.10
2018-05-19T05:35:05.760Z,14.17
2018-05-19T05:37:32.914Z,14.53
2018-05-19T05:39:59.040Z,13.60
2018-05-19T05:42:25.336Z,14.10
2018-05-19T05:44:51.607Z,13.73
2018-05-19T05:47:18.677Z,12.93
2018-05-19T05:49:44.914Z,14.47
2018-05-19T05:52:11.159Z,13.53
2018-05-19T05:54:37.426Z,13.70
2018-05-19T05:57:03.651Z,13.03
2018-05-19T05:59:29.945Z,14.53
2018-05-19T06:01:56.126Z,15.07
2018-05-19T06:04:23.182Z,15.03
2018-05-19T06:06:50.354Z,14.10
2018-05-19T06:09:16.678Z,14.80
2018-05-19T06:11:42.854Z,14.67
2018-05-19T06:14:09.114Z,13.63
2018-05-19T06:16:36.048Z,14.33
2018-05-19T06:19:03.016Z,13.47
2018-05-19T06:21:29.306Z,14.53
2018-05-19T06:23:55.555Z,14.43
2018-05-19T06:26:24.816Z,14.40
2018-05-19T06:28:51.040Z,14.37
2018-05-19T06:31:17.311Z,14.70
2018-05-19T06:33:43.639Z,15.07
2018-05-19T06:36:10.587Z,14.53
2018-05-19T06:38:38.585Z,13.97
2018-05-19T06:41:04.832Z,15.00
2018-05-19T06:43:31.075Z,16.40
2018-05-19T06:45:57.357Z,15.83
2018-05-19T06:48:24.392Z,15.67
2018-05-19T06:50:51.420Z,17.33
2018-05-19T06:53:18.592Z,16.07
2018-05-19T06:55:45.608Z,17.60
2018-05-19T06:58:11.799Z,17.00
2018-05-19T07:00:39.071Z,16.70
2018-05-19T07:03:05.307Z,18.20
2018-05-19T07:05:31.557Z,17.67
2018-05-19T07:07:57.808Z,18.30
2018-05-19T07:10:24.759Z,18.83
2018-05-19T07:12:51.718Z,18.30
2018-05-19T07:15:17.956Z,17.27
2018-05-19T07:17:44.201Z,17.67
2018-05-19T07:20:10.795Z,17.53
2018-05-19T07:22:37.717Z,16.77
2018-05-19T07:25:03.958Z,16.43
2018-05-19T07:27:30.925Z,17.10
2018-05-19T07:29:57.155Z,15.60
2018-05-19T07:32:23.444Z,16.57
2018-05-19T07:34:49.624Z,15.87
2018-05-19T07:37:15.954Z,15.33
2018-05-19T07:39:42.108Z,16.60
2018-05-19T07:42:08.296Z,16.27
2018-05-19T07:44:34.502Z,16.37
2018-05-19T07:47:01.536Z,16.40
2018-05-19T07:49:27.696Z,16.50
2018-05-19T07:51:53.887Z,16.67
2018-05-19T07:54:20.128Z,14.47
2018-05-19T07:56:47.055Z,15.90
2018-05-19T07:59:13.351Z,17.17
2018-05-19T08:01:39.556Z,16.17
2018-05-19T08:04:05.791Z,15.10
2018-05-19T08:06:35.648Z,16.60
2018-05-19T08:09:03.319Z,14.20
2018-05-19T08:11:29.523Z,15.00
2018-05-19T08:13:55.779Z,14.53
2018-05-19T08:16:22.007Z,14.90
2018-05-19T08:18:48.353Z,14.40
2018-05-19T08:21:14.641Z,14.27
2018-05-19T08:23:43.615Z,14.80
2018-05-19T08:26:09.952Z,13.83
2018-05-19T08:28:36.479Z,14.30
2018-05-19T08:31:02.643Z,13.07
2018-05-19T08:33:28.884Z,12.80
2018-05-19T08:35:55.167Z,14.43
2018-05-19T08:38:21.570Z,13.93
2018-05-19T08:40:49.628Z,15.30
2018-05-19T08:43:16.588Z,14.23
2018-05-19T08:45:42.764Z,14.10
2018-05-19T08:48:09.044Z,14.63
2018-05-19T08:50:35.333Z,13.70
2018-05-19T08:53:01.522Z,13.73
2018-05-19T08:55:27.790Z,13.37
2018-05-19T08:57:54.125Z,13.23
2018-05-19T09:00:20.330Z,13.30
2018-05-19T09:02:46.686Z,13.57
2018-05-19T09:05:12.939Z,13.03
2018-05-19T09:07:39.872Z,13.03
2018-05-19T09:12:58.253Z,12.47
2018-05-19T09:15:25.238Z,13.20
2018-05-19T09:17:51.514Z,12.60
2018-05-19T09:20:17.710Z,13.10
2018-05-19T09:22:44.073Z,11.50
2018-05-19T09:25:10.303Z,12.17
2018-05-19T09:27:37.253Z,12.60
2018-05-19T09:30:04.265Z,13.17
2018-05-19T09:32:30.460Z,11.93
2018-05-19T09:34:56.711Z,13.80
2018-05-19T09:37:22.838Z,12.10
2018-05-19T09:39:49.120Z,11.87
2018-05-19T09:42:16.056Z,11.70
2018-05-19T09:44:43.002Z,12.83
2018-05-19T09:47:09.964Z,10.83
2018-05-19T09:49:36.298Z,11.20
2018-05-19T09:52:02.584Z,11.87
2018-05-19T11:16:25.099Z,13.63
2018-05-19T11:18:52.272Z,12.60
2018-05-19T11:21:18.500Z,14.57
2018-05-19T11:23:44.765Z,12.30
2018-05-19T11:26:11.308Z,11.97
2018-05-19T11:28:37.486Z,13.30
2018-05-19T11:31:03.737Z,11.60
2018-05-19T11:33:29.970Z,13.40
2018-05-19T11:35:56.303Z,12.80
2018-05-19T11:38:22.400Z,12.63
2018-05-19T11:40:48.596Z,13.43
2018-05-19T11:43:15.014Z,14.00
2018-05-19T11:45:41.201Z,14.50
2018-05-19T11:48:07.380Z,12.67
2018-05-19T11:50:33.596Z,11.90
2018-05-19T11:52:59.763Z,12.60
2018-05-19T11:55:25.917Z,13.83
2018-05-19T11:57:52.061Z,13.83
2018-05-19T12:00:18.211Z,13.30
2018-05-19T12:02:45.401Z,12.90
2018-05-19T12:05:12.288Z,12.40
2018-05-19T12:07:38.435Z,12.50
2018-05-19T12:10:04.649Z,12.80
2018-05-19T12:12:30.825Z,12.67
2018-05-19T12:14:56.988Z,12.23
2018-05-19T12:17:24.892Z,11.97
2018-05-19T12:19:51.778Z,12.70
2018-05-19T12:22:18.005Z,12.50
2018-05-19T12:24:44.152Z,11.73
2018-05-19T12:27:11.292Z,12.20
2018-05-19T12:29:37.437Z,11.40
2018-05-19T12:32:03.713Z,13.40
2018-05-19T12:34:29.920Z,11.40
2018-05-19T12:36:56.172Z,11.97
2018-05-19T12:39:22.344Z,12.77
2018-05-19T12:41:48.661Z,12.50
2018-05-19T12:44:14.787Z,11.80
2018-05-19T12:46:40.972Z,11.80
2018-05-19T12:49:07.884Z,11.50
2018-05-19T12:51:34.045Z,12.00
2018-05-19T12:54:01.788Z,10.80
2018-05-19T12:56:27.945Z,12.17
2018-05-19T12:58:54.096Z,10.60
2018-05-19T13:01:20.273Z,10.40
2018-05-19T13:03:46.533Z,11.33
2018-05-19T13:06:12.748Z,10.57
2018-05-19T13:08:39.726Z,11.10
2018-05-19T13:11:05.891Z,12.43
2018-05-19T13:13:32.171Z,9.87
2018-05-19T13:15:58.324Z,8.43
2018-05-19T13:18:24.524Z,9.10
2018-05-19T13:20:50.668Z,9.00
2018-05-19T13:23:16.864Z,9.70
2018-05-19T13:25:43.044Z,9.10
2018-05-19T13:28:09.204Z,10.30
2018-05-19T13:30:36.092Z,9.40
2018-05-19T13:33:02.237Z,10.93
2018-05-19T13:35:28.423Z,10.67
2018-05-19T13:37:54.589Z,10.30
2018-05-19T13:40:20.764Z,10.53
2018-05-19T13:42:47.663Z,10.47
2018-05-19T13:45:13.808Z,10.40
2018-05-19T13:47:40.614Z,11.07
2018-05-19T13:50:06.832Z,9.80
2018-05-19T13:52:32.990Z,10.97
2018-05-19T13:55:00.167Z,9.30
2018-05-19T13:57:27.196Z,9.53
2018-05-19T13:59:53.452Z,11.93
2018-05-19T14:02:20.344Z,11.30
2018-05-19T14:04:46.481Z,11.27
2018-05-19T14:07:12.636Z,10.17
2018-05-19T14:09:38.777Z,11.93
2018-05-19T14:12:05.756Z,12.07
2018-05-19T14:14:31.832Z,10.70
2018-05-19T14:16:58.795Z,11.30
2018-05-19T14:19:25.720Z,11.50
2018-05-19T14:21:51.864Z,10.17
2018-05-19T14:24:18.761Z,10.90
2018-05-19T14:26:44.920Z,11.53
2018-05-19T14:29:11.807Z,10.00
2018-05-19T14:31:38.004Z,10.33
2018-05-19T14:34:04.907Z,10.70
2018-05-19T14:36:32.085Z,11.80
2018-05-19T14:38:58.236Z,11.00
2018-05-19T14:41:24.440Z,11.30
2018-05-19T14:43:51.367Z,10.60
2018-05-19T14:46:17.505Z,12.57
2018-05-19T14:48:43.657Z,11.07
2018-05-19T14:51:09.804Z,10.80
2018-05-19T14:53:36.083Z,10.63
2018-05-19T14:56:03.376Z,11.47
2018-05-19T14:58:29.539Z,10.80
2018-05-19T15:00:56.698Z,10.77
2018-05-19T15:03:22.889Z,12.30
2018-05-19T15:05:49.024Z,10.10
2018-05-19T15:08:15.183Z,11.43
2018-05-19T15:10:41.325Z,9.80
2018-05-19T15:13:07.487Z,10.40
2018-05-19T15:15:33.725Z,10.60
2018-05-19T15:17:59.860Z,10.10
2018-05-19T15:20:26.024Z,10.10
2018-05-19T15:22:52.160Z,9.27
2018-05-19T15:25:18.361Z,10.30
2018-05-19T15:27:44.513Z,10.07
2018-05-19T15:30:10.684Z,9.10
2018-05-19T15:32:36.817Z,8.60
2018-05-19T15:35:04.001Z,8.33
2018-05-19T15:37:30.131Z,9.13
2018-05-19T15:39:56.392Z,8.83
2018-05-19T15:42:23.284Z,10.30
2018-05-19T15:44:49.439Z,9.10
2018-05-19T15:47:15.571Z,8.10
2018-05-19T15:49:41.725Z,8.40
2018-05-19T15:52:07.872Z,7.90
2018-05-19T15:54:34.044Z,7.90
2018-05-19T15:57:00.166Z,8.20
2018-05-19T15:59:26.330Z,8.47
2018-05-19T16:01:52.484Z,8.83
2018-05-19T16:04:18.624Z,9.73
2018-05-19T16:06:44.772Z,9.00
2018-05-19T16:09:10.950Z,9.13
2018-05-19T16:11:37.100Z,10.20
2018-05-19T16:14:03.280Z,9.50
2018-05-19T16:16:30.244Z,9.43
2018-05-19T16:18:56.388Z,8.77
2018-05-19T16:21:23.559Z,9.63
2018-05-19T16:23:49.697Z,9.93
2018-05-19T16:26:15.908Z,10.07
2018-05-19T16:28:42.087Z,9.40
2018-05-19T16:31:08.980Z,9.30
2018-05-19T16:33:35.120Z,8.67
2018-05-19T16:36:01.282Z,8.90
2018-05-19T16:38:28.168Z,8.50
2018-05-19T16:40:54.316Z,9.00
2018-05-19T16:43:20.483Z,9.10
2018-05-19T16:45:46.636Z,8.33
2018-05-19T16:48:12.882Z,8.80
2018-05-19T16:50:40.032Z,7.83
2018-05-19T16:53:06.183Z,9.50
2018-05-19T16:55:32.335Z,8.80
2018-05-19T16:57:59.207Z,9.03
2018-05-19T17:00:25.500Z,7.80
2018-05-19T17:02:52.384Z,10.33
2018-05-19T17:05:18.574Z,8.33
2018-05-19T17:07:45.458Z,9.10
2018-05-19T17:10:11.676Z,9.87
2018-05-19T17:12:38.876Z,8.97
2018-05-19T17:15:05.037Z,9.00
2018-05-19T17:17:31.278Z,8.73
2018-05-19T17:19:57.425Z,9.87
2018-05-19T17:22:23.624Z,9.57
2018-05-19T17:24:49.763Z,11.23
2018-05-19T17:27:15.951Z,10.97
2018-05-19T17:29:42.827Z,9.13
2018-05-19T17:32:09.083Z,8.23
2018-05-19T17:34:36.326Z,9.27
2018-05-19T17:37:02.480Z,8.90
2018-05-19T17:39:28.700Z,8.73
2018-05-19T17:41:54.863Z,9.53
2018-05-19T17:44:21.744Z,9.20
2018-05-19T17:46:47.889Z,7.93
2018-05-19T17:49:14.044Z,8.80
2018-05-19T17:51:40.219Z,9.80
2018-05-19T17:54:06.414Z,8.87
2018-05-19T17:56:33.301Z,9.13
2018-05-19T17:58:59.513Z,8.57
2018-05-19T18:01:25.677Z,9.97
2018-05-19T18:03:51.852Z,9.43
2018-05-19T18:06:18.011Z,9.50
2018-05-19T18:08:44.257Z,9.07
2018-05-19T18:11:10.437Z,8.97
2018-05-19T18:13:36.571Z,8.33
2018-05-19T18:16:02.821Z,8.93
2018-05-19T18:18:28.975Z,9.70
2018-05-19T18:20:56.645Z,9.00
2018-05-19T18:23:22.789Z,8.90
2018-05-19T18:25:49.665Z,8.73
2018-05-19T18:28:15.912Z,8.70
2018-05-19T18:30:42.792Z,9.47
2018-05-19T18:33:09.000Z,8.37
2018-05-19T18:35:35.207Z,8.63
2018-05-19T18:38:01.372Z,8.43
2018-05-19T18:40:27.521Z,10.30
2018-05-19T18:42:54.471Z,27.77
2018-05-19T18:45:21.365Z,50.83
2018-05-19T18:47:47.519Z,40.83
2018-05-19T18:50:13.681Z,38.00
2018-05-19T18:52:52.187Z,29.23
2018-05-19T18:55:18.323Z,22.53
2018-05-19T18:57:44.636Z,19.90
2018-05-19T19:00:10.712Z,18.80
2018-05-19T19:02:36.897Z,13.63
2018-05-19T19:05:09.590Z,10.80
2018-05-19T19:07:35.851Z,12.00
2018-05-19T19:10:01.996Z,13.20
2018-05-19T19:12:28.348Z,12.10
2018-05-19T19:14:55.708Z,12.17
2018-05-19T19:17:22.693Z,12.20
2018-05-19T19:19:48.841Z,12.10
2018-05-19T19:22:14.999Z,14.23
2018-05-19T19:24:42.998Z,12.83
2018-05-19T19:27:09.647Z,12.27
2018-05-19T19:29:36.095Z,14.70
2018-05-19T19:32:02.396Z,12.73
2018-05-19T19:34:28.553Z,13.17
2018-05-19T19:36:54.688Z,13.73
2018-05-19T19:39:21.601Z,12.87
2018-05-19T19:41:47.797Z,14.77
2018-05-19T19:44:15.700Z,12.10
2018-05-19T19:46:41.832Z,11.80
2018-05-19T19:49:08.076Z,13.30
2018-05-19T19:51:34.272Z,11.83
2018-05-19T19:54:00.428Z,13.03
2018-05-19T19:56:27.757Z,12.93
2018-05-19T19:58:53.961Z,13.80
2018-05-19T20:01:20.137Z,16.70
2018-05-19T20:03:46.362Z,14.27
2018-05-19T20:06:13.594Z,13.80
2018-05-19T20:08:40.808Z,14.70
2018-05-19T20:11:07.759Z,14.57
2018-05-19T20:13:34.738Z,13.73
2018-05-19T20:16:00.947Z,13.73
2018-05-19T20:18:27.174Z,13.47
2018-05-19T20:20:53.324Z,11.90
2018-05-19T20:23:19.471Z,13.17
2018-05-19T20:25:45.691Z,11.63
2018-05-19T20:28:11.835Z,12.40
2018-05-19T20:30:38.000Z,11.63
2018-05-19T20:33:04.966Z,14.33
2018-05-19T20:35:31.175Z,12.40
2018-05-19T20:37:58.317Z,12.60
2018-05-19T20:40:25.240Z,14.17
2018-05-19T20:42:51.384Z,16.20
2018-05-19T20:45:18.294Z,16.60
2018-05-19T20:47:44.477Z,16.87
2018-05-19T20:50:10.653Z,15.97
2018-05-19T20:52:36.871Z,22.70
2018-05-19T20:55:03.059Z,16.67
2018-05-19T20:57:29.385Z,14.40
2018-05-19T20:59:56.356Z,13.20
2018-05-19T21:02:22.615Z,14.17
2018-05-19T21:04:48.793Z,13.73
2018-05-19T21:07:15.033Z,15.43
2018-05-19T21:09:41.193Z,13.73
2018-05-19T21:12:07.332Z,13.80
2018-05-19T21:14:33.471Z,14.10
2018-05-19T21:16:59.632Z,13.73
2018-05-19T21:19:27.391Z,13.47
2018-05-19T21:21:53.608Z,13.77
2018-05-19T21:24:20.520Z,12.70
2018-05-19T21:26:46.675Z,11.93
2018-05-19T21:29:13.551Z,12.73
2018-05-19T21:31:39.792Z,12.10
2018-05-19T21:34:05.967Z,13.03
2018-05-19T21:36:32.934Z,12.57
2018-05-19T21:38:59.077Z,13.80
2018-05-19T21:41:25.333Z,12.93
2018-05-19T21:43:52.531Z,14.17
2018-05-19T21:46:18.716Z,13.20
2018-05-19T21:48:44.901Z,14.33
2018-05-19T21:51:14.520Z,12.77
2018-05-19T21:53:40.775Z,13.37
2018-05-19T21:56:07.032Z,13.23
2018-05-19T21:58:33.259Z,14.13
2018-05-19T22:01:00.372Z,13.93
2018-05-19T22:03:26.540Z,13.60
2018-05-19T22:05:53.470Z,14.20
2018-05-19T22:08:19.651Z,14.53
2018-05-19T22:10:45.896Z,13.60
2018-05-19T22:13:12.132Z,14.20
2018-05-19T22:15:38.404Z,13.23
2018-05-19T22:18:05.432Z,13.30
2018-05-19T22:20:31.698Z,16.40
2018-05-19T22:22:58.054Z,12.20
2018-05-19T22:25:24.296Z,13.50
2018-05-19T22:27:50.628Z,13.40
2018-05-19T22:30:16.875Z,14.10
2018-05-19T22:32:43.187Z,13.10
2018-05-19T22:35:09.527Z,13.40
2018-05-19T22:37:35.736Z,12.20
2018-05-19T22:40:01.940Z,13.17
2018-05-19T22:42:28.180Z,14.03
2018-05-19T22:44:54.411Z,12.30
2018-05-19T22:47:20.831Z,14.43
2018-05-19T22:49:47.020Z,13.97
2018-05-19T22:52:13.248Z,14.00
2018-05-19T22:54:39.485Z,14.10
2018-05-19T22:57:06.481Z,16.83
2018-05-19T22:59:32.787Z,16.77
2018-05-19T23:01:59.012Z,15.73
2018-05-19T23:04:25.276Z,18.13
2018-05-19T23:06:51.432Z,16.80
2018-05-19T23:09:17.731Z,14.47
2018-05-19T23:11:43.911Z,15.30
2018-05-19T23:14:10.975Z,15.07
2018-05-19T23:16:37.219Z,15.00
2018-05-19T23:19:03.468Z,15.50
2018-05-19T23:21:29.688Z,15.07
2018-05-19T23:23:55.924Z,14.60
2018-05-19T23:26:22.188Z,13.73
2018-05-19T23:28:49.128Z,14.27
2018-05-19T23:31:15.280Z,13.80
2018-05-19T23:33:42.229Z,15.30
2018-05-19T23:36:08.421Z,13.73
2018-05-19T23:38:34.627Z,15.13
2018-05-19T23:41:00.934Z,13.50
2018-05-19T23:43:27.107Z,13.97
2018-05-19T23:45:53.353Z,14.83
2018-05-19T23:48:20.306Z,14.17
2018-05-19T23:50:47.278Z,16.37
2018-05-19T23:53:13.520Z,15.43
2018-05-19T23:55:39.760Z,15.90
2018-05-19T23:58:06.065Z,15.87
